createdAt,value
2022-12-27T00:04:16.904Z,99603.16
2022-12-27T00:09:09.227Z,99600.97
2022-12-27T00:14:05.865Z,99614.88
2022-12-27T00:18:58.054Z,99617.88
2022-12-27T00:23:56.236Z,99629.59
2022-12-27T00:28:49.094Z,99633.47
2022-12-27T00:33:41.994Z,99625.75
2022-12-27T00:38:34.747Z,99628.59
2022-12-27T00:43:26.444Z,99623.25
2022-12-27T00:48:18.232Z,99622.56
2022-12-27T00:53:11.820Z,99623.59
2022-12-27T00:58:03.753Z,99622.06
2022-12-27T01:02:55.635Z,99622.41
2022-12-27T01:07:47.459Z,99618.56
2022-12-27T01:12:39.266Z,99616.72
2022-12-27T01:17:31.070Z,99618.38
2022-12-27T01:22:23.067Z,99622.09
2022-12-27T01:27:15.006Z,99628.44
2022-12-27T01:32:07.430Z,99642.63
2022-12-27T01:36:59.161Z,99640.81
2022-12-27T01:42:09.899Z,99640.13
2022-12-27T01:47:03.282Z,99646.16
2022-12-27T01:51:55.009Z,99643.50
2022-12-27T01:56:47.056Z,99648.16
2022-12-27T02:01:43.204Z,99646.66
2022-12-27T02:06:37.115Z,99645.97
2022-12-27T02:11:51.449Z,99654.16
2022-12-27T02:16:43.098Z,99660.53
2022-12-27T02:21:55.981Z,99651.66
2022-12-27T02:27:08.114Z,99650.84
2022-12-27T02:32:12.019Z,99646.47
2022-12-27T02:37:09.173Z,99650.34
2022-12-27T02:42:21.481Z,99646.63
2022-12-27T02:47:42.484Z,99645.16
2022-12-27T02:52:55.501Z,99643.13
2022-12-27T02:58:09.646Z,99627.91
2022-12-27T03:03:26.713Z,99618.72
2022-12-27T03:08:27.430Z,99617.91
2022-12-27T03:13:43.151Z,99625.06
2022-12-27T03:18:51.244Z,99614.53
2022-12-27T03:24:04.364Z,99602.00
2022-12-27T03:29:16.481Z,99602.50
2022-12-27T03:34:31.238Z,99603.84
2022-12-27T03:39:37.618Z,99603.16
2022-12-27T03:44:29.371Z,99597.28
2022-12-27T03:49:44.124Z,99586.91
2022-12-27T03:54:41.030Z,99583.41
2022-12-27T03:59:32.989Z,99580.91
2022-12-27T04:04:24.740Z,99585.44
2022-12-27T04:09:35.235Z,99591.63
2022-12-27T04:14:45.357Z,99582.59
2022-12-27T04:19:55.686Z,99584.25
2022-12-27T04:25:05.796Z,99567.38
2022-12-27T04:30:16.261Z,99557.50
2022-12-27T04:35:08.077Z,99554.66
2022-12-27T04:40:18.675Z,99553.84
2022-12-27T04:45:29.210Z,99560.00
2022-12-27T04:50:45.259Z,99552.84
2022-12-27T04:55:36.999Z,99551.00
2022-12-27T05:00:49.754Z,99549.81
2022-12-27T05:05:42.695Z,99542.63
2022-12-27T05:10:52.895Z,99531.75
2022-12-27T05:15:44.625Z,99528.59
2022-12-27T05:20:36.386Z,99543.97
2022-12-27T05:25:38.522Z,99552.66
2022-12-27T05:30:33.447Z,99536.09
2022-12-27T05:35:25.182Z,99533.94
2022-12-27T05:40:16.947Z,99528.25
2022-12-27T05:45:08.918Z,99528.38
2022-12-27T05:50:00.587Z,99522.69
2022-12-27T05:54:52.270Z,99514.66
2022-12-27T05:59:44.071Z,99504.59
2022-12-27T06:04:35.704Z,99497.44
2022-12-27T06:09:27.407Z,99500.28
2022-12-27T06:14:19.117Z,99500.47
2022-12-27T06:19:10.769Z,99489.75
2022-12-27T06:24:02.407Z,99495.28
2022-12-27T06:28:56.249Z,99486.56
2022-12-27T06:33:50.201Z,99482.06
2022-12-27T06:38:42.388Z,99476.53
2022-12-27T06:43:34.432Z,99467.47
2022-12-27T06:48:26.286Z,99465.66
2022-12-27T06:53:18.028Z,99456.94
2022-12-27T06:58:09.715Z,99467.00
2022-12-27T07:03:04.232Z,99452.78
2022-12-27T07:07:56.083Z,99449.78
2022-12-27T07:12:47.921Z,99433.38
2022-12-27T07:17:39.697Z,99449.09
2022-12-27T07:22:31.571Z,99443.38
2022-12-27T07:27:23.371Z,99447.53
2022-12-27T07:32:15.011Z,99441.19
2022-12-27T07:37:07.548Z,99421.44
2022-12-27T07:42:04.704Z,99418.78
2022-12-27T07:46:59.486Z,99417.75
2022-12-27T07:51:51.082Z,99419.59
2022-12-27T07:56:42.830Z,99418.78
2022-12-27T08:01:54.668Z,99430.31
2022-12-27T08:06:46.685Z,99436.47
2022-12-27T08:11:38.323Z,99437.16
2022-12-27T08:16:30.046Z,99418.25
2022-12-27T08:21:21.860Z,99416.03
2022-12-27T08:26:13.546Z,99411.16
2022-12-27T08:31:08.309Z,99405.47
2022-12-27T08:36:53.553Z,99393.56
2022-12-27T08:41:21.327Z,99396.06
2022-12-27T08:46:13.044Z,99376.34
2022-12-27T08:51:12.386Z,99368.78
2022-12-27T08:56:05.803Z,99369.25
2022-12-27T09:01:05.253Z,99373.91
2022-12-27T09:06:17.287Z,99367.19
2022-12-27T09:11:18.248Z,99354.25
2022-12-27T09:16:13.176Z,99354.41
2022-12-27T09:21:07.380Z,99351.19
2022-12-27T09:25:59.065Z,99353.34
2022-12-27T09:30:50.785Z,99348.44
2022-12-27T09:35:42.473Z,99340.22
2022-12-27T09:40:34.225Z,99329.31
2022-12-27T09:45:35.595Z,99305.66
2022-12-27T09:50:52.422Z,99298.13
2022-12-27T09:55:48.565Z,99298.56
2022-12-27T10:00:46.082Z,99272.41
2022-12-27T10:05:39.728Z,99265.69
2022-12-27T10:11:01.655Z,99258.78
2022-12-27T10:16:20.412Z,99253.13
2022-12-27T10:21:24.656Z,99251.38
2022-12-27T10:26:20.304Z,99234.56
2022-12-27T10:31:21.123Z,99238.50
2022-12-27T10:36:24.743Z,99219.38
2022-12-27T10:41:16.274Z,99218.00
2022-12-27T10:46:19.415Z,99183.56
2022-12-27T10:51:11.985Z,99192.91
2022-12-27T10:56:09.674Z,99176.44
2022-12-27T11:01:01.389Z,99170.50
2022-12-27T11:06:05.237Z,99141.44
2022-12-27T11:11:23.138Z,99120.88
2022-12-27T11:16:26.371Z,99106.91
2022-12-27T11:21:27.465Z,99105.13
2022-12-27T11:26:23.572Z,99077.50
2022-12-27T11:31:18.081Z,99066.19
2022-12-27T11:36:12.032Z,99049.13
2022-12-27T11:41:12.178Z,99032.03
2022-12-27T11:46:13.956Z,99026.31
2022-12-27T11:51:30.611Z,99012.72
2022-12-27T11:56:32.448Z,99009.91
2022-12-27T12:01:54.803Z,99019.28
2022-12-27T12:07:24.562Z,99002.16
2022-12-27T12:12:38.171Z,98981.31
2022-12-27T12:17:48.684Z,98971.03
2022-12-27T12:22:59.991Z,98958.88
2022-12-27T12:28:47.310Z,98931.59
2022-12-27T12:33:33.811Z,98927.06
2022-12-27T12:38:47.356Z,98907.44
2022-12-27T12:43:59.954Z,98891.53
2022-12-27T12:49:16.279Z,98890.69
2022-12-27T12:54:29.195Z,98883.44
2022-12-27T12:59:52.944Z,98865.06
2022-12-27T13:05:13.481Z,98843.91
2022-12-27T13:10:57.760Z,98843.88
2022-12-27T13:15:58.305Z,98839.72
2022-12-27T13:21:16.595Z,98821.47
2022-12-27T13:26:32.763Z,98812.31
2022-12-27T13:31:36.490Z,98808.75
2022-12-27T13:36:46.611Z,98786.56
2022-12-27T13:42:15.985Z,98784.03
2022-12-27T13:48:01.868Z,98761.63
2022-12-27T13:53:01.968Z,98760.75
2022-12-27T13:58:20.919Z,98744.53
2022-12-27T14:03:34.197Z,98726.91
2022-12-27T14:08:43.538Z,98726.25
2022-12-27T14:13:40.237Z,98712.53
2022-12-27T14:19:15.473Z,98697.19
2022-12-27T14:24:31.971Z,98684.78
2022-12-27T14:30:12.778Z,98673.78
2022-12-27T14:35:25.501Z,98647.41
2022-12-27T14:40:22.708Z,98649.66
2022-12-27T14:45:35.875Z,98641.94
2022-12-27T14:50:52.162Z,98634.03
2022-12-27T14:56:03.603Z,98631.50
2022-12-27T15:01:15.369Z,98619.22
2022-12-27T15:06:45.380Z,98615.00
2022-12-27T15:11:55.787Z,98610.03
2022-12-27T15:16:56.555Z,98585.75
2022-12-27T15:22:02.166Z,98590.06
2022-12-27T15:26:59.503Z,98579.50
2022-12-27T15:32:03.696Z,98574.13
2022-12-27T15:36:55.666Z,98559.59
2022-12-27T15:41:50.423Z,98551.06
2022-12-27T15:47:05.527Z,98552.47
2022-12-27T15:52:16.294Z,98548.72
2022-12-27T15:57:32.587Z,98529.16
2022-12-27T16:02:42.451Z,98518.53
2022-12-27T16:07:51.816Z,98503.53
2022-12-27T16:12:45.175Z,98489.72
2022-12-27T16:17:55.644Z,98467.94
2022-12-27T16:22:50.819Z,98465.84
2022-12-27T16:27:43.392Z,98449.91
2022-12-27T16:32:35.820Z,98465.47
2022-12-27T16:37:44.942Z,98493.75
2022-12-27T16:42:49.297Z,98462.66
2022-12-27T16:47:46.579Z,98456.91
2022-12-27T16:53:04.686Z,98443.63
2022-12-27T16:58:35.496Z,98438.47
2022-12-27T17:03:27.192Z,98428.13
2022-12-27T17:08:21.175Z,98428.59
2022-12-27T17:13:22.453Z,98391.63
2022-12-27T17:18:51.989Z,98378.16
2022-12-27T17:23:48.123Z,98371.34
2022-12-27T17:29:05.952Z,98367.25
2022-12-27T17:34:17.531Z,98357.13
2022-12-27T17:39:34.043Z,98353.03
2022-12-27T17:44:54.195Z,98347.03
2022-12-27T17:49:47.534Z,98352.44
2022-12-27T17:54:57.543Z,98344.56
2022-12-27T17:59:50.865Z,98339.66
2022-12-27T18:04:53.074Z,98342.56
2022-12-27T18:09:55.698Z,98336.56
2022-12-27T18:15:08.320Z,98323.06
2022-12-27T18:20:00.173Z,98305.28
2022-12-27T18:24:51.811Z,98293.06
2022-12-27T18:29:43.900Z,98282.50
2022-12-27T18:34:42.977Z,98270.69
2022-12-27T18:39:47.245Z,98284.97
2022-12-27T18:44:47.417Z,98271.50
2022-12-27T18:49:39.063Z,98267.13
2022-12-27T18:54:33.739Z,98254.28
2022-12-27T18:59:31.241Z,98252.97
2022-12-27T19:04:25.815Z,98251.69
2022-12-27T19:09:19.991Z,98250.41
2022-12-27T19:14:13.739Z,98238.31
2022-12-27T19:19:10.143Z,98239.97
2022-12-27T19:24:21.948Z,98251.94
2022-12-27T19:29:37.884Z,98247.34
2022-12-27T19:34:44.178Z,98247.94
2022-12-27T19:39:38.709Z,98245.84
2022-12-27T19:44:32.572Z,98254.75
2022-12-27T19:54:35.982Z,98247.47
2022-12-27T19:59:28.048Z,98241.38
2022-12-27T20:04:20.218Z,98236.81
2022-12-27T20:09:17.517Z,98232.00
2022-12-27T20:14:09.609Z,98229.88
2022-12-27T20:19:02.849Z,98228.84
2022-12-27T20:23:54.987Z,98219.69
2022-12-27T20:28:47.545Z,98200.56
2022-12-27T20:33:39.426Z,98198.44
2022-12-27T20:38:31.348Z,98190.13
2022-12-27T20:43:23.007Z,98194.81
2022-12-27T20:48:15.119Z,98188.13
2022-12-27T20:53:07.360Z,98190.13
2022-12-27T20:58:00.457Z,98189.88
2022-12-27T21:02:52.473Z,98195.84
2022-12-27T21:07:50.801Z,98203.81
2022-12-27T21:12:42.522Z,98208.50
2022-12-27T21:17:34.694Z,98212.59
2022-12-27T21:22:26.738Z,98209.44
2022-12-27T21:27:18.475Z,98211.91
2022-12-27T21:32:10.976Z,98232.44
2022-12-27T21:37:07.488Z,98237.59
2022-12-27T21:42:03.400Z,98248.41
2022-12-27T21:46:55.047Z,98253.56
2022-12-27T21:51:47.077Z,98254.03
2022-12-27T21:56:39.327Z,98250.41
2022-12-27T22:01:51.953Z,98244.91
2022-12-27T22:06:47.075Z,98239.75
2022-12-27T22:11:39.739Z,98236.81
2022-12-27T22:16:36.432Z,98235.16
2022-12-27T22:21:30.897Z,98227.06
2022-12-27T22:26:25.214Z,98233.53
2022-12-27T22:31:22.386Z,98242.09
2022-12-27T22:36:17.241Z,98249.34
2022-12-27T22:41:14.846Z,98260.38
2022-12-27T22:46:12.871Z,98257.69
2022-12-27T22:51:13.955Z,98255.81
2022-12-27T22:56:11.718Z,98259.34
2022-12-27T23:01:10.837Z,98251.25
2022-12-27T23:06:02.883Z,98256.63
2022-12-27T23:10:54.841Z,98245.25
2022-12-27T23:15:46.540Z,98251.72
2022-12-27T23:20:38.347Z,98256.53
2022-12-27T23:25:50.092Z,98253.22
2022-12-27T23:30:41.766Z,98271.31
2022-12-27T23:35:35.109Z,98285.25
2022-12-27T23:40:26.799Z,98288.44
2022-12-27T23:45:18.485Z,98307.53
2022-12-27T23:50:10.959Z,98321.03
2022-12-27T23:55:04.914Z,98319.38
2022-12-27T23:59:56.586Z,98308.47
